createdAt,value
2023-03-28T00:01:13.845Z,23.00
2023-03-28T00:03:43.788Z,21.67
2023-03-28T00:06:16.619Z,20.17
2023-03-28T00:08:47.935Z,20.93
2023-03-28T00:11:20.436Z,21.30
2023-03-28T00:13:51.439Z,21.13
2023-03-28T00:16:20.476Z,21.67
2023-03-28T00:18:51.031Z,19.13
2023-03-28T00:21:24.221Z,23.40
2023-03-28T00:23:53.959Z,18.47
2023-03-28T00:26:24.780Z,15.50
2023-03-28T00:28:53.553Z,18.83
2023-03-28T00:31:23.399Z,20.23
2023-03-28T00:33:53.739Z,13.93
2023-03-28T00:36:26.607Z,19.27
2023-03-28T00:38:56.034Z,16.73
2023-03-28T00:41:26.825Z,16.67
2023-03-28T00:43:57.152Z,14.53
2023-03-28T00:46:30.652Z,1.87
2023-03-28T00:49:04.495Z,15.73
2023-03-28T00:51:36.937Z,15.30
2023-03-28T00:54:06.518Z,17.70
2023-03-28T00:56:38.069Z,16.83
2023-03-28T00:59:10.999Z,13.83
2023-03-28T01:01:39.948Z,13.33
2023-03-28T01:04:10.520Z,18.43
2023-03-28T01:06:45.365Z,22.77
2023-03-28T01:09:19.118Z,14.70
2023-03-28T01:11:52.200Z,14.73
2023-03-28T01:14:23.582Z,17.37
2023-03-28T01:16:56.373Z,13.10
2023-03-28T01:19:43.018Z,15.10
2023-03-28T01:22:38.742Z,16.40
2023-03-28T01:25:45.605Z,16.40
2023-03-28T01:28:28.985Z,20.40
2023-03-28T01:31:26.742Z,24.47
2023-03-28T01:34:40.705Z,16.03
2023-03-28T01:37:26.492Z,14.67
2023-03-28T01:40:12.072Z,17.90
2023-03-28T01:42:54.275Z,23.70
2023-03-28T01:45:29.838Z,24.03
2023-03-28T01:48:07.214Z,24.17
2023-03-28T01:50:45.220Z,21.43
2023-03-28T01:53:22.888Z,26.17
2023-03-28T01:55:57.628Z,11.23
2023-03-28T01:58:32.654Z,15.83
2023-03-28T02:01:10.151Z,16.37
2023-03-28T02:03:43.099Z,12.63
2023-03-28T02:06:30.991Z,13.73
2023-03-28T02:09:05.104Z,16.43
2023-03-28T02:11:50.981Z,18.13
2023-03-28T02:14:39.689Z,13.63
2023-03-28T02:17:52.034Z,16.23
2023-03-28T02:20:51.349Z,13.27
2023-03-28T02:23:46.613Z,12.07
2023-03-28T02:26:35.208Z,18.83
2023-03-28T02:29:24.139Z,14.90
2023-03-28T02:31:59.571Z,17.10
2023-03-28T02:34:28.499Z,13.97
2023-03-28T02:37:08.718Z,17.30
2023-03-28T02:39:49.870Z,15.63
2023-03-28T02:42:42.164Z,18.33
2023-03-28T02:45:34.812Z,18.87
2023-03-28T02:48:14.276Z,22.70
2023-03-28T02:50:50.985Z,19.73
2023-03-28T02:53:28.140Z,23.50
2023-03-28T02:56:02.024Z,13.53
2023-03-28T02:58:54.912Z,24.40
2023-03-28T03:01:29.414Z,20.53
2023-03-28T03:03:59.098Z,26.47
2023-03-28T03:06:27.942Z,24.73
2023-03-28T03:08:56.389Z,24.00
2023-03-28T03:11:28.140Z,23.37
2023-03-28T03:14:00.250Z,16.70
2023-03-28T03:16:31.179Z,15.17
2023-03-28T03:19:00.468Z,25.27
2023-03-28T03:21:29.215Z,21.30
2023-03-28T03:23:58.062Z,22.27
2023-03-28T03:26:27.573Z,20.60
2023-03-28T03:29:03.069Z,20.97
2023-03-28T03:31:33.706Z,28.97
2023-03-28T03:34:28.223Z,25.03
2023-03-28T03:37:00.409Z,25.87
2023-03-28T03:39:29.614Z,23.77
2023-03-28T03:41:58.294Z,22.00
2023-03-28T03:44:28.147Z,22.67
2023-03-28T03:46:57.415Z,32.13
2023-03-28T03:49:25.996Z,24.27
2023-03-28T03:51:55.217Z,27.50
2023-03-28T03:54:23.952Z,26.87
2023-03-28T03:56:52.811Z,19.23
2023-03-28T03:59:22.001Z,37.53
2023-03-28T04:01:53.180Z,27.23
2023-03-28T04:04:22.034Z,21.80
2023-03-28T04:07:17.308Z,23.83
2023-03-28T04:09:48.195Z,19.80
2023-03-28T04:12:18.467Z,32.27
2023-03-28T04:14:57.417Z,24.17
2023-03-28T04:17:41.225Z,28.80
2023-03-28T04:20:15.128Z,25.73
2023-03-28T04:23:05.931Z,24.73
2023-03-28T04:25:35.039Z,24.13
2023-03-28T04:28:27.768Z,31.57
2023-03-28T04:31:04.649Z,26.07
2023-03-28T04:33:54.982Z,38.10
2023-03-28T04:36:25.821Z,34.33
2023-03-28T04:39:03.893Z,36.60
2023-03-28T04:41:55.597Z,21.97
2023-03-28T04:44:45.545Z,19.37
2023-03-28T04:47:15.192Z,25.67
2023-03-28T04:49:45.336Z,32.23
2023-03-28T04:52:14.883Z,24.50
2023-03-28T04:54:45.910Z,22.47
2023-03-28T04:57:17.529Z,25.60
2023-03-28T04:59:49.479Z,20.80
2023-03-28T05:02:41.220Z,30.63
2023-03-28T05:05:15.760Z,29.30
2023-03-28T05:07:44.269Z,24.47
2023-03-28T05:10:14.195Z,22.03
2023-03-28T05:12:43.148Z,26.27
2023-03-28T05:15:21.738Z,19.30
2023-03-28T05:18:27.366Z,19.87
2023-03-28T05:20:58.065Z,16.90
2023-03-28T05:23:26.860Z,19.70
2023-03-28T05:25:56.089Z,23.13
2023-03-28T05:28:24.960Z,23.37
2023-03-28T05:30:54.729Z,26.43
2023-03-28T05:33:23.306Z,22.47
2023-03-28T05:35:53.615Z,15.63
2023-03-28T05:38:23.539Z,16.63
2023-03-28T05:40:58.808Z,23.73
2023-03-28T05:43:27.610Z,16.47
2023-03-28T05:45:56.435Z,14.77
2023-03-28T05:48:31.896Z,22.80
2023-03-28T05:51:01.186Z,11.60
2023-03-28T05:53:31.332Z,15.57
2023-03-28T05:56:00.229Z,15.63
2023-03-28T05:58:29.558Z,15.17
2023-03-28T06:00:58.610Z,18.63
2023-03-28T06:03:28.073Z,25.23
2023-03-28T06:05:57.257Z,12.07
2023-03-28T06:08:28.685Z,13.57
2023-03-28T06:11:03.448Z,27.23
2023-03-28T06:13:46.573Z,16.67
2023-03-28T06:16:16.344Z,18.43
2023-03-28T06:18:44.925Z,14.37
2023-03-28T06:21:14.074Z,19.30
2023-03-28T06:23:42.616Z,19.10
2023-03-28T06:26:23.449Z,13.23
2023-03-28T06:28:52.850Z,17.20
2023-03-28T06:31:32.323Z,22.83
2023-03-28T06:34:00.881Z,16.43
2023-03-28T06:36:29.685Z,18.07
2023-03-28T06:38:58.450Z,22.27
2023-03-28T06:41:30.630Z,17.83
2023-03-28T06:43:59.272Z,22.13
2023-03-28T06:46:46.564Z,13.10
2023-03-28T06:49:15.697Z,11.87
2023-03-28T06:52:03.499Z,20.20
2023-03-28T06:54:32.615Z,19.70
2023-03-28T06:57:02.740Z,12.73
2023-03-28T06:59:31.352Z,19.03
2023-03-28T07:02:05.079Z,17.30
2023-03-28T07:04:35.983Z,14.40
2023-03-28T07:07:04.940Z,14.80
2023-03-28T07:09:34.086Z,13.57
2023-03-28T07:12:10.405Z,17.60
2023-03-28T07:14:40.601Z,14.13
2023-03-28T07:17:09.762Z,9.80
2023-03-28T07:19:38.235Z,15.87
2023-03-28T07:22:07.272Z,15.00
2023-03-28T07:24:37.814Z,22.13
2023-03-28T07:27:17.378Z,15.20
2023-03-28T07:29:47.811Z,14.97
2023-03-28T07:32:17.069Z,19.13
2023-03-28T07:34:47.570Z,24.27
2023-03-28T07:37:22.883Z,18.33
2023-03-28T07:40:12.855Z,17.30
2023-03-28T07:42:44.514Z,15.60
2023-03-28T07:45:13.228Z,18.03
2023-03-28T07:47:42.461Z,15.47
2023-03-28T07:50:11.361Z,13.83
2023-03-28T07:52:45.412Z,17.17
2023-03-28T07:55:15.004Z,16.17
2023-03-28T07:57:50.038Z,13.90
2023-03-28T08:00:27.633Z,18.47
2023-03-28T08:03:16.000Z,17.33
2023-03-28T08:05:51.554Z,22.90
2023-03-28T08:08:22.979Z,16.53
2023-03-28T08:11:13.469Z,36.50
2023-03-28T08:13:44.073Z,18.67
2023-03-28T08:16:20.582Z,36.47
2023-03-28T08:18:57.007Z,16.83
2023-03-28T08:21:32.156Z,17.27
2023-03-28T08:24:01.169Z,16.30
2023-03-28T08:26:47.434Z,15.30
2023-03-28T08:29:18.922Z,19.90
2023-03-28T08:31:47.974Z,20.67
2023-03-28T08:34:17.500Z,16.27
2023-03-28T08:36:47.102Z,14.20
2023-03-28T08:39:29.208Z,18.30
2023-03-28T08:42:23.586Z,14.77
2023-03-28T08:45:12.482Z,15.50
2023-03-28T08:47:49.320Z,14.20
2023-03-28T08:50:25.137Z,14.27
2023-03-28T08:52:54.885Z,23.30
2023-03-28T08:55:31.236Z,18.90
2023-03-28T08:58:01.996Z,17.50
2023-03-28T09:00:34.398Z,19.70
2023-03-28T09:03:02.916Z,15.50
2023-03-28T09:05:42.252Z,13.53
2023-03-28T09:08:29.064Z,15.07
2023-03-28T09:11:04.489Z,12.80
2023-03-28T09:13:41.805Z,17.57
2023-03-28T09:16:36.465Z,9.47
2023-03-28T09:19:40.672Z,10.53
2023-03-28T09:23:06.175Z,13.33
2023-03-28T09:26:08.777Z,12.90
2023-03-28T09:28:47.227Z,14.07
2023-03-28T09:31:20.886Z,14.20
2023-03-28T09:33:51.011Z,17.27
2023-03-28T09:36:41.419Z,10.90
2023-03-28T09:39:25.566Z,13.57
2023-03-28T09:42:01.867Z,12.80
2023-03-28T09:44:58.589Z,12.80
2023-03-28T09:47:47.987Z,20.80
2023-03-28T09:50:21.316Z,12.27
2023-03-28T09:52:57.094Z,10.73
2023-03-28T09:55:29.607Z,12.97
2023-03-28T09:58:07.675Z,16.83
2023-03-28T10:00:56.512Z,10.57
2023-03-28T10:03:54.195Z,12.67
2023-03-28T10:06:32.247Z,17.30
2023-03-28T10:09:18.421Z,12.27
2023-03-28T10:11:59.937Z,6.67
2023-03-28T10:14:36.473Z,15.67
2023-03-28T10:17:09.176Z,8.20
2023-03-28T10:19:47.259Z,16.87
2023-03-28T10:22:27.683Z,19.07
2023-03-28T10:24:59.395Z,16.13
2023-03-28T10:27:32.696Z,16.23
2023-03-28T10:30:16.195Z,17.57
2023-03-28T10:32:45.882Z,23.17
2023-03-28T10:35:31.124Z,22.27
2023-03-28T10:38:21.755Z,13.50
2023-03-28T10:41:08.648Z,11.53
2023-03-28T10:43:52.168Z,18.77
2023-03-28T10:46:33.827Z,21.37
2023-03-28T10:49:25.764Z,15.77
2023-03-28T10:52:14.090Z,17.30
2023-03-28T10:54:57.979Z,18.97
2023-03-28T10:57:57.277Z,15.30
2023-03-28T11:00:31.451Z,14.10
2023-03-28T11:03:19.464Z,13.97
2023-03-28T11:06:08.155Z,17.10
2023-03-28T11:08:55.423Z,13.97
2023-03-28T11:11:45.451Z,19.40
2023-03-28T11:14:25.623Z,11.43
2023-03-28T11:17:02.933Z,22.03
2023-03-28T11:20:17.624Z,19.77
2023-03-28T11:23:06.850Z,16.47
2023-03-28T11:26:09.683Z,16.57
2023-03-28T11:29:19.202Z,11.90
2023-03-28T11:31:57.681Z,13.50
2023-03-28T11:34:32.118Z,17.93
2023-03-28T11:37:05.524Z,11.37
2023-03-28T11:39:42.478Z,9.57
2023-03-28T11:42:21.470Z,18.83
2023-03-28T11:44:59.837Z,12.60
2023-03-28T11:47:34.134Z,19.43
2023-03-28T11:50:17.732Z,13.53
2023-03-28T11:53:17.224Z,17.93
2023-03-28T11:56:04.926Z,23.30
2023-03-28T11:59:00.802Z,18.13
2023-03-28T12:01:32.671Z,23.77
2023-03-28T12:04:06.543Z,16.47
2023-03-28T12:06:52.233Z,15.27
2023-03-28T12:09:35.755Z,24.47
2023-03-28T12:12:11.700Z,25.63
2023-03-28T12:14:53.403Z,15.67
2023-03-28T12:17:41.898Z,17.43
2023-03-28T12:20:16.887Z,17.50
2023-03-28T12:22:52.628Z,28.13
2023-03-28T12:25:44.946Z,22.90
2023-03-28T12:28:24.060Z,19.93
2023-03-28T12:31:02.655Z,13.07
2023-03-28T12:33:44.678Z,16.43
2023-03-28T12:36:33.997Z,12.40
2023-03-28T12:39:12.777Z,18.43
2023-03-28T12:41:44.576Z,13.10
2023-03-28T12:44:16.297Z,16.03
2023-03-28T12:46:54.577Z,12.20
2023-03-28T12:49:33.442Z,21.87
2023-03-28T12:52:08.828Z,13.53
2023-03-28T12:54:55.024Z,7.87
2023-03-28T12:57:43.849Z,13.70
2023-03-28T13:00:28.847Z,13.53
2023-03-28T13:03:36.095Z,16.77
2023-03-28T13:06:15.586Z,8.80
2023-03-28T13:09:05.340Z,12.17
2023-03-28T13:11:43.699Z,12.77
2023-03-28T13:14:36.368Z,13.03
2023-03-28T13:17:19.581Z,11.70
2023-03-28T13:19:53.600Z,12.30
2023-03-28T13:22:34.790Z,15.93
2023-03-28T13:25:26.145Z,12.53
2023-03-28T13:27:57.217Z,15.13
2023-03-28T13:30:28.737Z,10.10
2023-03-28T13:33:00.877Z,16.20
2023-03-28T13:35:40.571Z,17.70
2023-03-28T13:38:33.507Z,17.87
2023-03-28T13:41:06.573Z,13.73
2023-03-28T13:43:43.679Z,18.27
2023-03-28T13:46:16.127Z,19.97
2023-03-28T13:48:50.677Z,19.30
2023-03-28T13:51:24.238Z,20.47
2023-03-28T13:53:53.234Z,15.07
2023-03-28T13:56:25.074Z,19.37
2023-03-28T13:58:56.105Z,19.57
2023-03-28T14:01:27.251Z,21.53
2023-03-28T14:03:56.883Z,19.47
2023-03-28T14:06:28.215Z,18.47
2023-03-28T14:09:00.449Z,17.80
2023-03-28T14:11:36.600Z,20.43
2023-03-28T14:14:12.446Z,11.63
2023-03-28T14:16:43.131Z,17.23
2023-03-28T14:19:20.058Z,21.77
2023-03-28T14:21:51.227Z,23.07
2023-03-28T14:24:25.327Z,17.50
2023-03-28T14:27:05.916Z,13.60
2023-03-28T14:29:34.699Z,17.53
2023-03-28T14:32:08.318Z,13.80
2023-03-28T14:34:38.878Z,17.10
2023-03-28T14:37:17.689Z,14.33
2023-03-28T14:39:47.348Z,12.73
2023-03-28T14:42:17.881Z,21.30
2023-03-28T14:44:50.393Z,19.23
2023-03-28T14:47:26.729Z,16.37
2023-03-28T14:49:56.195Z,23.80
2023-03-28T14:52:30.760Z,20.20
2023-03-28T14:55:01.734Z,23.43
2023-03-28T14:57:31.269Z,16.17
2023-03-28T15:00:01.326Z,17.80
2023-03-28T15:02:35.247Z,14.47
2023-03-28T15:05:07.768Z,20.30
2023-03-28T15:07:39.224Z,11.37
2023-03-28T15:10:11.388Z,9.60
2023-03-28T15:12:46.846Z,23.33
2023-03-28T15:15:18.433Z,13.47
2023-03-28T15:17:47.834Z,6.97
2023-03-28T15:20:20.149Z,12.47
2023-03-28T15:22:55.657Z,5.60
2023-03-28T15:25:25.342Z,12.30
2023-03-28T15:27:58.590Z,11.60
2023-03-28T15:30:28.468Z,6.10
2023-03-28T15:33:02.864Z,11.13
2023-03-28T15:35:33.550Z,13.03
2023-03-28T15:38:08.270Z,11.97
2023-03-28T15:40:42.835Z,16.13
2023-03-28T15:43:36.620Z,14.87
2023-03-28T15:46:11.661Z,14.30
2023-03-28T15:48:42.094Z,13.77
2023-03-28T15:51:15.918Z,26.50
2023-03-28T15:53:47.750Z,11.17
2023-03-28T15:56:23.137Z,14.43
2023-03-28T15:58:51.985Z,18.97
2023-03-28T16:01:26.737Z,23.40
2023-03-28T16:04:21.283Z,21.23
2023-03-28T16:06:50.436Z,19.93
2023-03-28T16:09:22.824Z,13.43
2023-03-28T16:11:58.548Z,12.77
2023-03-28T16:14:47.928Z,16.30
2023-03-28T16:17:35.653Z,16.70
2023-03-28T16:20:25.418Z,17.63
2023-03-28T16:22:54.433Z,14.97
2023-03-28T16:25:24.394Z,19.63
2023-03-28T16:27:53.164Z,20.57
2023-03-28T16:30:26.500Z,24.37
2023-03-28T16:32:56.110Z,31.13
2023-03-28T16:35:27.052Z,17.53
2023-03-28T16:37:56.202Z,13.70
2023-03-28T16:40:26.037Z,22.80
2023-03-28T16:42:55.128Z,17.03
2023-03-28T16:45:23.761Z,20.70
2023-03-28T16:47:52.616Z,18.50
2023-03-28T16:50:21.253Z,25.77
2023-03-28T16:52:49.967Z,19.23
2023-03-28T16:55:19.625Z,11.00
2023-03-28T16:57:49.775Z,10.57
2023-03-28T17:00:22.869Z,16.17
2023-03-28T17:02:51.999Z,19.07
2023-03-28T17:05:20.512Z,15.67
2023-03-28T17:07:49.286Z,10.47
2023-03-28T17:10:17.775Z,16.43
2023-03-28T17:12:46.480Z,11.67
2023-03-28T17:15:16.329Z,12.23
2023-03-28T17:17:45.184Z,16.07
2023-03-28T17:20:13.749Z,13.23
2023-03-28T17:22:42.772Z,13.90
2023-03-28T17:25:11.346Z,26.20
2023-03-28T17:27:40.481Z,21.97
2023-03-28T17:30:11.622Z,16.60
2023-03-28T17:32:42.301Z,18.93
2023-03-28T17:35:12.505Z,17.33
2023-03-28T17:37:41.743Z,19.47
2023-03-28T17:40:11.254Z,21.87
2023-03-28T17:42:40.196Z,21.80
2023-03-28T17:45:10.701Z,17.20
2023-03-28T17:47:39.724Z,26.67
2023-03-28T17:50:10.845Z,21.80
2023-03-28T17:52:39.848Z,23.63
2023-03-28T17:55:08.963Z,21.93
2023-03-28T17:57:37.715Z,23.57
2023-03-28T18:00:07.922Z,25.83
2023-03-28T18:02:46.069Z,14.17
2023-03-28T18:05:36.042Z,28.40
2023-03-28T18:08:04.908Z,18.07
2023-03-28T18:10:33.504Z,17.70
2023-03-28T18:13:02.232Z,19.87
2023-03-28T18:15:30.725Z,21.00
2023-03-28T18:18:01.698Z,20.30
2023-03-28T18:20:30.305Z,15.70
2023-03-28T18:23:00.408Z,16.67
2023-03-28T18:25:32.319Z,20.93
2023-03-28T18:28:02.544Z,18.23
2023-03-28T18:30:31.980Z,19.17
2023-03-28T18:33:01.081Z,20.80
2023-03-28T18:35:29.725Z,21.47
2023-03-28T18:38:00.036Z,15.20
2023-03-28T18:40:28.706Z,15.03
2023-03-28T18:42:57.637Z,21.27
2023-03-28T18:45:28.675Z,17.33
2023-03-28T18:47:58.959Z,21.90
2023-03-28T18:50:28.654Z,21.10
2023-03-28T18:52:58.013Z,21.43
2023-03-28T18:55:28.242Z,18.77
2023-03-28T18:57:59.400Z,24.73
2023-03-28T19:00:27.993Z,20.07
2023-03-28T19:02:58.049Z,17.30
2023-03-28T19:05:26.737Z,18.30
2023-03-28T19:07:57.220Z,20.53
2023-03-28T19:10:27.341Z,27.60
2023-03-28T19:12:56.518Z,23.47
2023-03-28T19:15:25.882Z,18.20
2023-03-28T19:17:54.814Z,23.23
2023-03-28T19:20:23.379Z,23.53
2023-03-28T19:22:58.158Z,18.60
2023-03-28T19:25:29.726Z,21.63
2023-03-28T19:29:01.402Z,30.63
2023-03-28T19:32:21.474Z,24.00
2023-03-28T19:35:25.689Z,28.83
2023-03-28T19:39:02.499Z,23.60
2023-03-28T19:42:07.736Z,39.20
2023-03-28T19:44:47.577Z,25.87
2023-03-28T19:47:22.499Z,31.60
2023-03-28T19:50:11.517Z,21.93
2023-03-28T19:53:28.797Z,21.33
2023-03-28T19:56:23.088Z,23.63
2023-03-28T19:58:53.727Z,21.40
2023-03-28T20:01:22.287Z,19.33
2023-03-28T20:03:53.211Z,23.10
2023-03-28T20:06:23.174Z,24.30
2023-03-28T20:08:52.726Z,17.27
2023-03-28T20:11:22.055Z,28.10
2023-03-28T20:13:51.218Z,25.47
2023-03-28T20:16:25.137Z,20.60
2023-03-28T20:18:56.058Z,30.17
2023-03-28T20:21:24.597Z,27.83
2023-03-28T20:23:54.235Z,34.47
2023-03-28T20:26:25.971Z,21.27
2023-03-28T20:28:56.932Z,23.73
2023-03-28T20:31:28.493Z,21.83
2023-03-28T20:34:00.509Z,21.57
2023-03-28T20:36:29.044Z,24.20
2023-03-28T20:38:57.836Z,23.07
2023-03-28T20:41:28.002Z,20.47
2023-03-28T20:44:03.188Z,25.77
2023-03-28T20:46:36.835Z,22.30
2023-03-28T20:49:07.925Z,19.80
2023-03-28T20:51:39.364Z,19.93
2023-03-28T20:54:08.401Z,20.00
2023-03-28T20:56:37.110Z,25.67
2023-03-28T20:59:06.296Z,20.33
2023-03-28T21:01:44.533Z,22.63
2023-03-28T21:04:15.353Z,30.07
2023-03-28T21:06:45.989Z,20.80
2023-03-28T21:09:18.063Z,19.10
2023-03-28T21:11:46.821Z,27.83
2023-03-28T21:14:15.651Z,27.30
2023-03-28T21:16:47.380Z,27.37
2023-03-28T21:19:16.596Z,31.80
2023-03-28T21:21:45.040Z,35.00
2023-03-28T21:24:14.058Z,36.27
2023-03-28T21:26:42.490Z,38.73
2023-03-28T21:29:11.669Z,34.47
2023-03-28T21:31:40.180Z,34.90
2023-03-28T21:34:10.701Z,34.80
2023-03-28T21:36:39.179Z,42.10
2023-03-28T21:39:07.913Z,34.10
2023-03-28T21:41:38.091Z,38.07
2023-03-28T21:44:07.010Z,33.73
2023-03-28T21:46:36.395Z,38.30
2023-03-28T21:49:05.207Z,44.27
2023-03-28T21:51:35.908Z,33.40
2023-03-28T21:54:05.481Z,40.43
2023-03-28T21:56:33.899Z,37.53
2023-03-28T21:59:02.667Z,40.20
2023-03-28T22:01:31.128Z,33.17
2023-03-28T22:04:00.797Z,39.13
2023-03-28T22:06:29.484Z,35.07
2023-03-28T22:08:59.949Z,59.40
2023-03-28T22:11:28.993Z,67.40
2023-03-28T22:14:01.444Z,58.20
2023-03-28T22:16:31.503Z,52.73
2023-03-28T22:19:00.831Z,53.73
2023-03-28T22:21:31.495Z,45.43
2023-03-28T22:24:03.692Z,43.70
2023-03-28T22:26:32.360Z,46.07
2023-03-28T22:29:01.384Z,41.83
2023-03-28T22:31:29.878Z,38.83
2023-03-28T22:33:58.711Z,49.47
2023-03-28T22:36:27.245Z,44.30
2023-03-28T22:38:56.954Z,45.93
2023-03-28T22:41:31.876Z,41.97
2023-03-28T22:44:00.845Z,40.07
2023-03-28T22:46:30.029Z,40.27
2023-03-28T22:49:00.598Z,44.30
2023-03-28T22:51:29.820Z,36.53
2023-03-28T22:54:01.851Z,36.03
2023-03-28T22:56:31.862Z,37.30
2023-03-28T22:59:01.750Z,33.70
2023-03-28T23:01:30.403Z,46.33
2023-03-28T23:03:59.381Z,45.17
2023-03-28T23:06:28.605Z,51.40
2023-03-28T23:08:58.575Z,45.87
2023-03-28T23:11:27.543Z,51.63
2023-03-28T23:13:57.640Z,40.13
2023-03-28T23:16:26.406Z,46.83
2023-03-28T23:18:55.120Z,46.50
2023-03-28T23:21:24.430Z,47.23
2023-03-28T23:23:54.073Z,43.80
2023-03-28T23:26:22.523Z,50.90
2023-03-28T23:28:51.337Z,40.13
2023-03-28T23:31:21.386Z,34.90
2023-03-28T23:33:50.417Z,40.90
2023-03-28T23:36:20.960Z,48.63
2023-03-28T23:38:50.052Z,47.63
2023-03-28T23:41:18.588Z,52.87
2023-03-28T23:43:47.322Z,53.90
2023-03-28T23:46:16.223Z,41.97
2023-03-28T23:48:46.370Z,44.77
2023-03-28T23:51:15.239Z,45.80
2023-03-28T23:53:44.178Z,48.10
2023-03-28T23:56:12.765Z,42.40
2023-03-28T23:58:41.481Z,49.53
